Timothy, Illinois
Current Conditions -  °F | °C
As of 2:53 PM on Tuesday 25 Nov 2014 (Local Time) from KMTO Reporting Station
Broken Clouds Broken Clouds  
Wind Chill: 23°   Ceiling: 2000
Heat Index: 30°   Visibility: 10mi
Dew Point: 22°   Wind: 7mph
Humidity: 72%   Direction: 300°WNW
Pressure: 30.15"   Gusts: NA
Location:  39.2272°N, 88.1132°W
Report Text: KMTO 252053Z AUTO 30006KT 10SM BKN020 M01/M06 A3015 RMK AO2 SLP217 T10111056 56010
Loading
Personal Weather Stations






























Interactive Weather Map New forecast layout! Learn more

10-Day Weather Forecast

Advertisements
Track Severe Weather on mobile